createdAt,value
2022-07-26T00:01:34.765Z,4.30
2022-07-26T00:04:05.904Z,4.50
2022-07-26T00:06:35.703Z,3.50
2022-07-26T00:09:06.439Z,3.30
2022-07-26T00:11:36.668Z,3.50
2022-07-26T00:14:08.791Z,3.30
2022-07-26T00:16:38.871Z,3.30
2022-07-26T00:19:09.106Z,3.80
2022-07-26T00:21:40.732Z,3.20
2022-07-26T00:24:11.801Z,3.80
2022-07-26T00:26:42.607Z,3.40
2022-07-26T00:29:12.704Z,3.60
2022-07-26T00:31:42.696Z,3.20
2022-07-26T00:34:12.708Z,3.90
2022-07-26T00:36:44.426Z,3.70
2022-07-26T00:39:15.962Z,3.30
2022-07-26T00:41:45.788Z,3.30
2022-07-26T00:44:16.788Z,3.20
2022-07-26T00:46:47.029Z,3.50
2022-07-26T00:49:16.901Z,3.40
2022-07-26T00:51:46.808Z,3.50
2022-07-26T00:54:18.519Z,3.70
2022-07-26T00:56:52.117Z,3.80
2022-07-26T00:59:31.891Z,3.60
2022-07-26T01:02:03.115Z,4.20
2022-07-26T01:04:34.129Z,3.90
2022-07-26T01:07:14.782Z,4.10
2022-07-26T01:09:46.768Z,3.80
2022-07-26T01:12:18.968Z,4.30
2022-07-26T01:14:48.573Z,3.90
2022-07-26T01:17:18.599Z,4.10
2022-07-26T01:19:49.628Z,3.10
2022-07-26T01:22:19.814Z,3.20
2022-07-26T01:24:49.710Z,3.50
2022-07-26T01:27:19.481Z,3.30
2022-07-26T01:29:52.428Z,4.10
2022-07-26T01:32:24.820Z,3.50
2022-07-26T01:34:54.890Z,3.50
2022-07-26T01:37:24.423Z,3.80
2022-07-26T01:39:54.117Z,3.50
2022-07-26T01:42:23.646Z,3.90
2022-07-26T01:44:53.863Z,3.60
2022-07-26T01:47:23.348Z,3.90
2022-07-26T01:49:54.658Z,3.40
2022-07-26T01:52:24.644Z,3.60
2022-07-26T01:54:55.019Z,3.20
2022-07-26T01:57:24.585Z,3.50
2022-07-26T01:59:56.241Z,3.40
2022-07-26T02:02:26.878Z,4.50
2022-07-26T02:04:59.671Z,4.00
2022-07-26T02:07:33.981Z,4.30
2022-07-26T02:10:05.019Z,4.10
2022-07-26T02:12:40.377Z,3.70
2022-07-26T02:15:11.836Z,3.60
2022-07-26T02:17:43.266Z,4.20
2022-07-26T02:20:17.647Z,4.00
2022-07-26T02:22:47.969Z,4.00
2022-07-26T02:25:17.577Z,3.90
2022-07-26T02:27:48.839Z,3.90
2022-07-26T02:30:18.947Z,4.30
2022-07-26T02:32:50.098Z,4.00
2022-07-26T02:35:19.943Z,3.60
2022-07-26T02:37:49.341Z,4.80
2022-07-26T02:40:19.828Z,5.00
2022-07-26T02:42:49.838Z,6.10
2022-07-26T02:45:19.818Z,5.80
2022-07-26T02:47:52.431Z,5.50
2022-07-26T02:50:25.754Z,6.10
2022-07-26T02:52:56.519Z,4.70
2022-07-26T02:55:28.730Z,3.70
2022-07-26T02:57:58.761Z,6.70
2022-07-26T03:00:28.441Z,4.30
2022-07-26T03:02:59.826Z,4.70
2022-07-26T03:05:29.926Z,4.20
2022-07-26T03:08:00.361Z,4.50
2022-07-26T03:10:30.865Z,4.10
2022-07-26T03:13:00.756Z,4.90
2022-07-26T03:15:32.086Z,4.00
2022-07-26T03:18:02.926Z,4.00
2022-07-26T03:20:33.112Z,4.70
2022-07-26T03:23:03.866Z,4.80
2022-07-26T03:25:33.932Z,5.00
2022-07-26T03:28:07.776Z,5.10
2022-07-26T03:30:37.869Z,6.00
2022-07-26T03:33:07.721Z,5.20
2022-07-26T03:35:38.024Z,4.90
2022-07-26T03:38:07.564Z,4.30
2022-07-26T03:40:37.629Z,4.50
2022-07-26T03:43:07.796Z,3.80
2022-07-26T03:45:37.853Z,4.60
2022-07-26T03:48:07.995Z,4.60
2022-07-26T03:50:39.785Z,4.10
2022-07-26T03:53:10.929Z,4.30
2022-07-26T03:55:59.747Z,3.70
2022-07-26T03:58:30.944Z,3.60
2022-07-26T04:01:00.897Z,3.70
2022-07-26T04:03:31.764Z,5.60
2022-07-26T04:06:02.982Z,4.50
2022-07-26T04:08:34.810Z,4.20
2022-07-26T04:11:04.976Z,4.20
2022-07-26T04:13:36.201Z,4.10
2022-07-26T04:16:06.028Z,5.10
2022-07-26T04:18:36.832Z,5.10
2022-07-26T04:21:07.330Z,5.80
2022-07-26T04:23:37.804Z,4.30
2022-07-26T04:26:08.967Z,4.80
2022-07-26T04:28:38.616Z,4.50
2022-07-26T04:31:09.182Z,4.70
2022-07-26T04:33:38.927Z,5.00
2022-07-26T04:36:09.194Z,4.60
2022-07-26T04:38:40.055Z,4.30
2022-07-26T04:41:10.462Z,4.60
2022-07-26T04:43:41.050Z,4.90
2022-07-26T04:46:12.612Z,6.10
2022-07-26T04:48:43.050Z,5.50
2022-07-26T04:51:12.865Z,5.50
2022-07-26T04:53:43.859Z,6.10
2022-07-26T04:56:15.593Z,6.10
2022-07-26T04:58:47.032Z,5.80
2022-07-26T05:01:16.954Z,5.70
2022-07-26T05:03:47.185Z,5.20
2022-07-26T05:06:18.459Z,5.20
2022-07-26T05:08:49.315Z,6.70
2022-07-26T05:11:19.040Z,6.10
2022-07-26T05:13:50.025Z,7.90
2022-07-26T05:16:21.157Z,10.10
2022-07-26T05:18:52.958Z,8.90
2022-07-26T05:21:22.814Z,8.20
2022-07-26T05:23:53.973Z,8.40
2022-07-26T05:26:23.997Z,6.80
2022-07-26T05:28:54.668Z,6.70
2022-07-26T05:31:26.396Z,6.70
2022-07-26T05:33:59.523Z,7.80
2022-07-26T05:36:31.122Z,6.40
2022-07-26T05:39:02.354Z,6.40
2022-07-26T05:41:32.254Z,6.10
2022-07-26T05:44:03.972Z,6.50
2022-07-26T05:46:33.909Z,5.80
2022-07-26T05:49:05.647Z,6.20
2022-07-26T05:51:36.875Z,5.80
2022-07-26T05:54:07.066Z,6.30
2022-07-26T05:56:38.209Z,6.00
2022-07-26T05:59:08.281Z,5.20
2022-07-26T06:01:38.794Z,5.40
2022-07-26T06:04:10.202Z,5.60
2022-07-26T06:06:40.494Z,6.00
2022-07-26T06:09:10.792Z,4.80
2022-07-26T06:11:41.047Z,5.30
2022-07-26T06:14:10.926Z,4.80
2022-07-26T06:16:40.494Z,4.30
2022-07-26T06:19:12.587Z,4.50
2022-07-26T06:21:43.270Z,4.90
2022-07-26T06:24:13.352Z,3.90
2022-07-26T06:26:43.492Z,4.40
2022-07-26T06:29:15.011Z,4.10
2022-07-26T06:31:44.971Z,4.10
2022-07-26T06:34:15.241Z,3.60
2022-07-26T06:36:47.749Z,3.40
2022-07-26T06:39:17.924Z,2.90
2022-07-26T06:41:49.825Z,3.20
2022-07-26T06:44:23.334Z,3.50
2022-07-26T06:46:53.926Z,3.90
2022-07-26T06:49:26.066Z,3.20
2022-07-26T06:51:58.956Z,3.90
2022-07-26T06:54:28.891Z,2.90
2022-07-26T06:56:59.005Z,3.60
2022-07-26T06:59:28.952Z,3.60
2022-07-26T07:02:00.666Z,4.00
2022-07-26T07:04:34.240Z,3.10
2022-07-26T07:07:06.641Z,3.40
2022-07-26T07:09:39.027Z,3.80
2022-07-26T07:12:10.827Z,3.00
2022-07-26T07:14:40.821Z,3.00
2022-07-26T07:17:17.159Z,2.60
2022-07-26T07:19:57.992Z,2.90
2022-07-26T07:22:27.913Z,2.90
2022-07-26T07:24:59.665Z,3.10
2022-07-26T07:27:33.270Z,3.00
2022-07-26T07:30:17.578Z,4.10
2022-07-26T07:32:50.015Z,3.20
2022-07-26T07:35:22.878Z,3.10
2022-07-26T07:37:54.252Z,3.30
2022-07-26T07:40:24.091Z,3.20
2022-07-26T07:42:55.154Z,2.90
2022-07-26T07:45:27.948Z,2.90
2022-07-26T07:47:57.962Z,2.40
2022-07-26T07:50:28.589Z,3.00
2022-07-26T07:52:59.858Z,2.90
2022-07-26T07:55:41.511Z,2.90
2022-07-26T07:58:18.834Z,3.00
2022-07-26T08:00:50.316Z,3.50
2022-07-26T08:03:21.480Z,4.10
2022-07-26T08:05:53.122Z,2.70
2022-07-26T08:08:23.939Z,3.00
2022-07-26T08:10:55.864Z,3.40
2022-07-26T08:13:27.121Z,2.60
2022-07-26T08:15:57.438Z,3.20
2022-07-26T08:18:30.229Z,2.80
2022-07-26T08:21:04.175Z,3.40
2022-07-26T08:23:36.012Z,2.90
2022-07-26T08:26:07.180Z,2.90
2022-07-26T08:28:47.271Z,2.60
2022-07-26T08:31:25.281Z,3.10
2022-07-26T08:33:58.613Z,3.30
2022-07-26T08:36:35.089Z,3.80
2022-07-26T08:39:06.409Z,2.50
2022-07-26T08:41:40.931Z,3.30
2022-07-26T08:44:14.121Z,2.50
2022-07-26T08:46:44.403Z,2.30
2022-07-26T08:49:16.633Z,2.30
2022-07-26T08:51:46.917Z,2.60
2022-07-26T08:54:18.451Z,3.10
2022-07-26T08:56:53.683Z,2.00
2022-07-26T08:59:24.370Z,1.90
2022-07-26T09:02:07.320Z,1.90
2022-07-26T09:04:44.763Z,2.90
2022-07-26T09:07:19.629Z,1.60
2022-07-26T09:10:11.065Z,1.70
2022-07-26T09:12:47.820Z,2.00
2022-07-26T09:15:28.754Z,2.10
2022-07-26T09:18:00.229Z,2.60
2022-07-26T09:20:34.192Z,1.60
2022-07-26T09:23:14.769Z,2.50
2022-07-26T09:25:47.426Z,4.30
2022-07-26T09:28:27.938Z,3.20
2022-07-26T09:31:00.420Z,1.60
2022-07-26T09:33:48.623Z,1.70
2022-07-26T09:36:19.590Z,1.90
2022-07-26T09:38:51.648Z,2.00
2022-07-26T09:41:32.115Z,3.40
2022-07-26T09:44:06.709Z,1.40
2022-07-26T09:47:29.057Z,1.80
2022-07-26T09:50:20.882Z,2.20
2022-07-26T09:53:08.370Z,1.60
2022-07-26T09:55:46.149Z,1.70
2022-07-26T09:58:18.118Z,3.60
2022-07-26T10:00:50.202Z,2.20
2022-07-26T10:03:20.504Z,3.60
2022-07-26T10:05:52.744Z,1.80
2022-07-26T10:08:23.414Z,1.80
2022-07-26T10:11:09.981Z,1.40
2022-07-26T10:13:40.822Z,1.90
2022-07-26T10:16:38.023Z,1.90
2022-07-26T10:19:09.947Z,1.90
2022-07-26T10:21:43.609Z,1.70
2022-07-26T10:24:42.861Z,1.50
2022-07-26T10:27:40.202Z,2.00
2022-07-26T10:30:20.295Z,1.50
2022-07-26T10:32:53.355Z,1.40
2022-07-26T10:35:42.155Z,2.10
2022-07-26T10:38:15.022Z,2.80
2022-07-26T10:41:09.428Z,2.00
2022-07-26T10:43:41.134Z,1.60
2022-07-26T10:46:21.443Z,2.30
2022-07-26T10:49:06.945Z,3.40
2022-07-26T10:51:40.070Z,1.40
2022-07-26T10:54:14.283Z,1.50
2022-07-26T10:56:45.035Z,1.50
2022-07-26T10:59:27.958Z,1.20
2022-07-26T11:02:19.098Z,1.60
2022-07-26T11:04:50.830Z,1.60
2022-07-26T11:07:22.339Z,2.70
2022-07-26T11:10:00.192Z,1.40
2022-07-26T11:12:31.267Z,1.40
2022-07-26T11:15:17.126Z,1.30
2022-07-26T11:17:47.395Z,1.00
2022-07-26T11:20:29.879Z,0.80
2022-07-26T11:23:01.563Z,1.00
2022-07-26T11:25:32.666Z,1.20
2022-07-26T11:28:07.129Z,1.30
2022-07-26T11:31:00.771Z,1.60
2022-07-26T11:33:41.967Z,1.20
2022-07-26T11:36:13.622Z,2.30
2022-07-26T11:38:56.099Z,1.00
2022-07-26T11:41:35.185Z,1.40
2022-07-26T11:44:06.152Z,1.30
2022-07-26T11:46:50.145Z,2.10
2022-07-26T11:50:00.122Z,1.10
2022-07-26T11:52:24.914Z,1.80
2022-07-26T11:54:59.482Z,1.20
2022-07-26T11:57:33.380Z,1.10
2022-07-26T12:00:07.395Z,1.00
2022-07-26T12:02:43.460Z,1.30
2022-07-26T12:05:22.896Z,1.10
2022-07-26T12:07:58.136Z,1.40
2022-07-26T12:10:32.961Z,1.00
2022-07-26T12:13:15.114Z,1.90
2022-07-26T12:15:53.682Z,1.60
2022-07-26T12:18:31.229Z,1.80
2022-07-26T12:21:09.646Z,1.00
2022-07-26T12:23:49.087Z,1.20
2022-07-26T12:26:28.859Z,0.80
2022-07-26T12:29:20.067Z,1.20
2022-07-26T12:32:12.743Z,2.10
2022-07-26T12:34:57.236Z,1.40
2022-07-26T12:37:39.487Z,1.50
2022-07-26T12:40:16.958Z,1.10
2022-07-26T12:42:58.644Z,1.60
2022-07-26T12:45:36.974Z,1.00
2022-07-26T12:48:13.664Z,1.20
2022-07-26T12:50:46.326Z,1.20
2022-07-26T12:53:22.433Z,1.10
2022-07-26T12:55:54.205Z,1.10
2022-07-26T12:58:24.310Z,1.00
2022-07-26T13:00:57.949Z,1.00
2022-07-26T13:03:30.160Z,1.20
2022-07-26T13:06:04.340Z,1.20
2022-07-26T13:08:34.940Z,1.70
2022-07-26T13:11:06.195Z,1.40
2022-07-26T13:13:36.364Z,1.30
2022-07-26T13:16:12.023Z,1.20
2022-07-26T13:18:44.245Z,1.30
2022-07-26T13:21:17.384Z,1.20
2022-07-26T13:23:47.367Z,1.70
2022-07-26T13:26:19.104Z,1.00
2022-07-26T13:28:53.771Z,1.70
2022-07-26T13:31:26.643Z,2.00
2022-07-26T13:33:57.061Z,3.10
2022-07-26T13:36:27.867Z,1.90
2022-07-26T13:38:59.916Z,1.70
2022-07-26T13:41:31.160Z,1.90
2022-07-26T13:44:02.567Z,1.90
2022-07-26T13:46:33.963Z,1.50
2022-07-26T13:49:06.105Z,1.00
2022-07-26T13:51:57.806Z,1.40
2022-07-26T13:54:32.946Z,1.30
2022-07-26T13:57:06.024Z,1.40
2022-07-26T13:59:36.899Z,1.30
2022-07-26T14:02:08.639Z,1.20
2022-07-26T14:04:38.323Z,1.70
2022-07-26T14:07:07.949Z,3.20
2022-07-26T14:09:38.125Z,1.70
2022-07-26T14:12:08.596Z,1.50
2022-07-26T14:14:39.636Z,1.40
2022-07-26T14:17:11.225Z,3.20
2022-07-26T14:19:41.451Z,3.20
2022-07-26T14:22:14.565Z,1.70
2022-07-26T14:24:46.252Z,1.50
2022-07-26T14:27:17.286Z,1.30
2022-07-26T14:29:48.309Z,1.50
2022-07-26T14:32:22.149Z,1.40
2022-07-26T14:34:53.925Z,1.40
2022-07-26T14:37:42.484Z,1.50
2022-07-26T14:40:18.031Z,1.10
2022-07-26T14:42:50.395Z,1.60
2022-07-26T14:45:23.912Z,1.10
2022-07-26T14:47:57.625Z,1.50
2022-07-26T14:50:35.027Z,2.60
2022-07-26T14:53:19.880Z,2.00
2022-07-26T14:55:54.803Z,1.40
2022-07-26T14:58:26.301Z,1.60
2022-07-26T15:00:58.615Z,1.40
2022-07-26T15:03:31.743Z,1.40
2022-07-26T15:06:02.218Z,1.60
2022-07-26T15:08:32.448Z,1.80
2022-07-26T15:11:06.414Z,1.70
2022-07-26T15:13:39.292Z,3.10
2022-07-26T15:16:12.604Z,1.80
2022-07-26T15:18:45.499Z,1.60
2022-07-26T15:21:16.840Z,1.50
2022-07-26T15:23:51.182Z,3.90
2022-07-26T15:26:26.327Z,3.90
2022-07-26T15:28:58.180Z,1.80
2022-07-26T15:31:37.209Z,7.50
2022-07-26T15:34:09.871Z,3.70
2022-07-26T15:36:40.354Z,1.60
2022-07-26T15:39:18.696Z,1.20
2022-07-26T15:41:50.053Z,1.30
2022-07-26T15:44:25.751Z,2.50
2022-07-26T15:46:57.445Z,1.60
2022-07-26T15:49:28.092Z,1.40
2022-07-26T15:51:58.546Z,1.70
2022-07-26T15:54:29.315Z,1.30
2022-07-26T15:57:00.270Z,1.40
2022-07-26T15:59:30.405Z,1.40
2022-07-26T16:02:00.369Z,1.60
2022-07-26T16:04:30.431Z,2.10
2022-07-26T16:07:03.328Z,1.80
2022-07-26T16:09:33.499Z,1.80
2022-07-26T16:12:06.275Z,1.50
2022-07-26T16:14:36.547Z,4.20
2022-07-26T16:17:08.553Z,1.80
2022-07-26T16:19:39.513Z,1.70
2022-07-26T16:22:11.495Z,1.40
2022-07-26T16:24:42.733Z,1.50
2022-07-26T16:27:14.688Z,2.10
2022-07-26T16:29:50.268Z,1.60
2022-07-26T16:32:22.583Z,2.20
2022-07-26T16:34:52.185Z,2.50
2022-07-26T16:37:22.483Z,2.70
2022-07-26T16:39:54.283Z,2.50
2022-07-26T16:42:24.867Z,2.10
2022-07-26T16:44:56.505Z,2.00
2022-07-26T16:47:28.016Z,2.00
2022-07-26T16:49:59.468Z,2.10
2022-07-26T16:52:30.342Z,3.10
2022-07-26T16:55:00.669Z,7.50
2022-07-26T16:57:33.756Z,5.00
2022-07-26T17:00:07.917Z,2.40
2022-07-26T17:02:39.261Z,5.10
2022-07-26T17:05:09.734Z,5.30
2022-07-26T17:07:42.179Z,3.50
2022-07-26T17:10:13.571Z,2.40
2022-07-26T17:12:43.262Z,2.50
2022-07-26T17:15:14.534Z,1.80
2022-07-26T17:17:48.717Z,5.20
2022-07-26T17:20:21.466Z,3.00
2022-07-26T17:22:51.462Z,4.00
2022-07-26T17:25:21.785Z,3.70
2022-07-26T17:27:53.895Z,3.60
2022-07-26T17:30:24.215Z,2.60
2022-07-26T17:32:55.209Z,12.00
2022-07-26T17:35:26.498Z,4.80
2022-07-26T17:37:56.823Z,3.90
2022-07-26T17:40:30.004Z,6.80
2022-07-26T17:43:00.684Z,6.90
2022-07-26T17:45:30.846Z,71.40
2022-07-26T17:48:06.059Z,75.30
2022-07-26T17:50:39.261Z,128.30
2022-07-26T17:53:12.819Z,86.80
2022-07-26T17:55:44.381Z,46.00
2022-07-26T17:58:15.738Z,27.00
2022-07-26T18:00:48.848Z,55.50
2022-07-26T18:03:20.909Z,42.10
2022-07-26T18:05:53.390Z,11.30
2022-07-26T18:08:32.301Z,4.40
2022-07-26T18:11:27.756Z,3.60
2022-07-26T18:13:58.455Z,12.70
2022-07-26T18:16:30.648Z,36.50
2022-07-26T18:19:02.270Z,31.30
2022-07-26T18:21:34.354Z,15.50
2022-07-26T18:24:16.957Z,36.40
2022-07-26T18:26:49.226Z,26.00
2022-07-26T18:29:20.697Z,27.70
2022-07-26T18:31:52.241Z,20.20
2022-07-26T18:34:23.561Z,14.50
2022-07-26T18:36:55.532Z,16.00
2022-07-26T18:39:30.515Z,9.30
2022-07-26T18:42:04.355Z,13.20
2022-07-26T18:44:38.620Z,10.90
2022-07-26T18:47:10.400Z,5.70
2022-07-26T18:49:40.200Z,6.90
2022-07-26T18:52:10.483Z,8.30
2022-07-26T18:54:41.708Z,9.80
2022-07-26T18:57:12.467Z,11.30
2022-07-26T18:59:44.756Z,11.80
2022-07-26T19:02:17.331Z,5.30
2022-07-26T19:04:49.510Z,4.70
2022-07-26T19:07:21.606Z,13.50
2022-07-26T19:09:57.873Z,10.90
2022-07-26T19:12:31.371Z,28.70
2022-07-26T19:15:06.800Z,62.70
2022-07-26T19:17:38.797Z,18.60
2022-07-26T19:20:11.634Z,13.10
2022-07-26T19:22:44.921Z,8.60
2022-07-26T19:25:17.373Z,19.50
2022-07-26T19:27:48.426Z,31.20
2022-07-26T19:30:18.884Z,18.40
2022-07-26T19:32:51.579Z,4.80
2022-07-26T19:35:23.848Z,3.70
2022-07-26T19:37:54.227Z,3.30
2022-07-26T19:40:24.751Z,3.10
2022-07-26T19:42:56.588Z,2.60
2022-07-26T19:45:27.328Z,2.80
2022-07-26T19:47:59.855Z,3.00
2022-07-26T19:50:36.254Z,2.90
2022-07-26T19:53:09.004Z,2.80
2022-07-26T19:55:46.530Z,3.80
2022-07-26T20:00:48.079Z,2.90
2022-07-26T20:03:17.977Z,2.50
2022-07-26T20:05:49.680Z,2.70
2022-07-26T20:08:20.708Z,7.70
2022-07-26T20:10:52.860Z,3.50
2022-07-26T20:13:23.530Z,3.90
2022-07-26T20:15:55.476Z,4.30
2022-07-26T20:18:28.965Z,3.20
2022-07-26T20:20:59.554Z,3.20
2022-07-26T20:23:29.466Z,3.20
2022-07-26T20:26:02.577Z,3.70
2022-07-26T20:28:33.993Z,2.60
2022-07-26T20:31:05.982Z,3.10
2022-07-26T20:33:36.525Z,3.30
2022-07-26T20:36:07.494Z,3.40
2022-07-26T20:38:37.428Z,3.50
2022-07-26T20:41:11.480Z,3.30
2022-07-26T20:43:48.997Z,4.20
2022-07-26T20:46:19.860Z,3.80
2022-07-26T20:48:51.688Z,3.60
2022-07-26T20:51:22.314Z,3.80
2022-07-26T20:53:52.516Z,4.00
2022-07-26T20:56:23.278Z,4.40
2022-07-26T20:58:53.391Z,4.90
2022-07-26T21:01:23.565Z,4.80
2022-07-26T21:03:55.407Z,5.60
2022-07-26T21:06:25.937Z,4.50
2022-07-26T21:09:01.069Z,4.60
2022-07-26T21:11:39.923Z,5.50
2022-07-26T21:14:10.395Z,5.10
2022-07-26T21:16:40.396Z,5.80
2022-07-26T21:19:11.074Z,5.30
2022-07-26T21:21:42.467Z,5.40
2022-07-26T21:24:13.674Z,4.70
2022-07-26T21:26:46.256Z,5.10
2022-07-26T21:29:16.140Z,5.30
2022-07-26T21:31:46.505Z,5.10
2022-07-26T21:34:17.107Z,5.00
2022-07-26T21:36:47.941Z,4.80
